Time;durP1;ratioP1;P1;durP2;ratioP2;P2;SDS_P1;SDS_P2;PMS_P1;PMS_P2;Temp;Humidity;BMP_temperature;BMP_pressure;BME280_temperature;BME280_humidity;BME280_pressure;Samples;Min_cycle;Max_cycle;Signal;HPM_P1;HPM_P2
2022/04/14 10:06:14;;;;;;;;;23.67;20.33;;;;;-146.03;100.00;60875.16;5923572;22;1649434;-94
2022/04/14 10:08:51;;;;;;;;;23.25;18.00;;;;;-146.03;100.00;60875.16;6306264;22;45375;-90
2022/04/14 10:11:28;;;;;;;;;18.00;17.00;;;;;-146.03;100.00;60875.16;6335315;22;45454;-88
2022/04/14 10:13:53;;;;;;;;;21.00;18.75;;;;;-146.03;100.00;60875.16;6336251;22;45264;-89
2022/04/14 10:16:23;;;;;;;;;18.00;16.00;;;;;-146.03;100.00;60875.16;6336901;22;45261;-89
2022/04/14 10:18:52;;;;;;;;;14.75;14.75;;;;;-146.03;100.00;60875.16;6336577;22;45918;-89
2022/04/14 10:21:18;;;;;;;;;15.00;15.00;;;;;-146.03;100.00;60875.16;6335586;22;45260;-88
2022/04/14 10:23:46;;;;;;;;;12.50;11.00;;;;;-146.03;100.00;60875.16;6336071;22;45332;-88
2022/04/14 10:26:13;;;;;;;;;14.75;14.75;;;;;-146.03;100.00;60875.16;6336490;22;45414;-89
2022/04/14 10:28:39;;;;;;;;;13.00;12.25;;;;;-146.03;100.00;60875.16;6336526;22;45382;-89
2022/04/14 10:31:05;;;;;;;;;11.25;8.25;;;;;-146.03;100.00;60875.16;6336687;22;45194;-88
2022/04/14 10:33:32;;;;;;;;;9.75;9.75;;;;;-146.03;100.00;60875.16;6307732;22;45436;-89
2022/04/14 10:35:57;;;;;;;;;10.00;9.50;;;;;-146.03;100.00;60875.16;6308211;22;45438;-89
2022/04/14 10:38:37;;;;;;;;;8.75;8.75;;;;;-146.03;100.00;60875.16;6336484;22;46198;-90
2022/04/14 10:41:13;;;;;;;;;7.25;6.25;;;;;-146.03;100.00;60875.16;6336775;22;45324;-90
2022/04/14 10:43:42;;;;;;;;;8.75;7.75;;;;;-146.03;100.00;60875.16;6308198;22;45327;-90
2022/04/14 10:46:07;;;;;;;;;8.75;8.25;;;;;-146.03;100.00;60875.16;6336508;22;45292;-91
2022/04/14 10:48:40;;;;;;;;;10.25;10.25;;;;;-146.03;100.00;60875.16;6334446;22;47196;-89
2022/04/14 10:51:28;;;;;;;;;8.25;8.25;;;;;-146.03;100.00;60875.16;6335937;22;45382;-91
2022/04/14 10:54:05;;;;;;;;;12.00;9.75;;;;;-146.03;100.00;60875.16;6335562;22;45374;-90
2022/04/14 10:56:33;;;;;;;;;15.00;12.50;;;;;-146.03;100.00;60875.16;6336257;22;45268;-91
2022/04/14 10:58:59;;;;;;;;;10.25;8.50;;;;;-146.03;100.00;60875.16;6308240;22;46762;-91
2022/04/14 11:01:59;;;;;;;;;11.50;9.75;;;;;-146.03;100.00;60875.16;6336757;22;45356;-92
2022/04/14 11:04:42;;;;;;;;;13.75;9.25;;;;;-146.03;100.00;60875.16;6153533;23;45405;-90
2022/04/14 11:07:09;;;;;;;;;12.25;12.25;;;;;-146.03;100.00;60875.16;6178507;23;45359;-91
2022/04/14 11:09:43;;;;;;;;;11.00;10.00;;;;;-146.03;100.00;60875.16;6179428;23;45493;-91
2022/04/14 11:12:25;;;;;;;;;9.25;9.25;;;;;-146.03;100.00;60875.16;6178389;23;45394;-92
2022/04/14 11:14:52;;;;;;;;;14.75;14.50;;;;;-146.03;100.00;60875.16;6179333;23;45536;-90
2022/04/14 11:17:40;;;;;;;;;7.75;7.50;;;;;-146.03;100.00;60875.16;6178981;23;45401;-90
2022/04/14 11:20:30;;;;;;;;;8.75;8.75;;;;;-146.03;100.00;60875.16;6177995;23;47954;-91
2022/04/14 11:23:26;;;;;;;;;10.00;8.25;;;;;-146.03;100.00;60875.16;6179350;23;45288;-92
2022/04/14 11:26:00;;;;;;;;;11.50;10.00;;;;;-146.03;100.00;60875.16;6171993;23;45917;-90
2022/04/14 11:28:28;;;;;;;;;8.25;6.75;;;;;-146.03;100.00;60875.16;6153800;23;45408;-91
2022/04/14 11:31:12;;;;;;;;;9.50;8.50;;;;;-146.03;100.00;60875.16;6178734;23;47407;-90
2022/04/14 11:33:41;;;;;;;;;10.25;10.25;;;;;-146.03;100.00;60875.16;6177846;23;45297;-92
2022/04/14 11:36:11;;;;;;;;;8.00;8.00;;;;;-146.03;100.00;60875.16;6153352;23;45549;-92
2022/04/14 11:38:59;;;;;;;;;7.25;7.25;;;;;-146.03;100.00;60875.16;6178641;23;45662;-91
2022/04/14 11:41:38;;;;;;;;;12.25;10.50;;;;;-146.03;100.00;60875.16;6335398;22;46164;-92
2022/04/14 11:44:14;;;;;;;;;8.25;8.25;;;;;-146.03;100.00;60875.16;6335294;22;45346;-93
2022/04/14 11:46:49;;;;;;;;;7.50;7.50;;;;;-146.03;100.00;60875.16;6308388;22;45373;-93
2022/04/14 11:49:26;;;;;;;;;6.00;5.50;;;;;-146.03;100.00;60875.16;6309028;22;45416;-92
2022/04/14 11:51:54;;;;;;;;;9.75;6.25;;;;;-146.03;100.00;60875.16;6308156;22;47282;-92
2022/04/14 11:54:44;;;;;;;;;6.25;6.25;;;;;-146.03;100.00;60875.16;6336047;22;45206;-91
2022/04/14 11:57:17;;;;;;;;;8.25;7.00;;;;;-146.03;100.00;60875.16;6307908;22;45356;-93
2022/04/14 11:59:45;;;;;;;;;7.00;6.00;;;;;-146.03;100.00;60875.16;6308238;22;45342;-92
2022/04/14 12:02:15;;;;;;;;;7.75;6.00;;;;;-146.03;100.00;60875.16;6335843;22;45385;-93
2022/04/14 12:04:47;;;;;;;;;6.00;6.00;;;;;-146.03;100.00;60875.16;6339914;22;45431;-92
2022/04/14 12:07:13;;;;;;;;;10.00;10.00;;;;;-146.03;100.00;60875.16;6335666;22;45663;-90
2022/04/14 12:09:42;;;;;;;;;10.00;8.25;;;;;-146.03;100.00;60875.16;6336362;22;45320;-92
2022/04/14 12:12:09;;;;;;;;;9.75;8.25;;;;;-146.03;100.00;60875.16;6306746;22;47945;-88
2022/04/14 12:14:34;;;;;;;;;9.75;9.75;;;;;-146.03;100.00;60875.16;6307862;22;45383;-90
2022/04/14 12:17:03;;;;;;;;;7.25;6.25;;;;;-146.03;100.00;60875.16;6307308;22;45238;-88
2022/04/14 12:19:42;;;;;;;;;6.50;6.50;;;;;-146.03;100.00;60875.16;6335439;22;45166;-89
2022/04/14 12:22:09;;;;;;;;;8.50;5.25;;;;;-146.03;100.00;60875.16;6307660;22;46007;-89
2022/04/14 12:24:34;;;;;;;;;5.25;5.00;;;;;-146.03;100.00;60875.16;6335962;22;45359;-89
2022/04/14 12:27:00;;;;;;;;;6.00;6.00;;;;;-146.03;100.00;60875.16;6307398;22;45259;-90
2022/04/14 12:29:28;;;;;;;;;5.00;4.25;;;;;-146.03;100.00;60875.16;6336424;22;45374;-88
2022/04/14 12:32:08;;;;;;;;;5.00;5.00;;;;;-146.03;100.00;60875.16;6335598;22;46139;-87
2022/04/14 12:34:34;;;;;;;;;5.75;5.50;;;;;-146.03;100.00;60875.16;6336220;22;45389;-88
2022/04/14 12:37:12;;;;;;;;;2.50;2.50;;;;;-146.03;100.00;60875.16;6336616;22;45290;-87
2022/04/14 12:39:53;;;;;;;;;3.75;3.75;;;;;-146.03;100.00;60875.16;6307526;22;45280;-89
2022/04/14 12:42:18;;;;;;;;;3.00;3.00;;;;;-146.03;100.00;60875.16;6308222;22;48174;-87
2022/04/14 12:44:44;;;;;;;;;3.00;3.00;;;;;-146.03;100.00;60875.16;6335382;22;45330;-88
2022/04/14 12:47:12;;;;;;;;;3.25;2.25;;;;;-146.03;100.00;60875.16;6310252;22;45323;-90
2022/04/14 12:49:37;;;;;;;;;5.00;4.00;;;;;-146.03;100.00;60875.16;6334458;22;45191;-89
2022/04/14 12:52:07;;;;;;;;;3.00;3.00;;;;;-146.03;100.00;60875.16;6334938;22;45759;-92
2022/04/14 12:54:46;;;;;;;;;6.75;5.00;;;;;-146.03;100.00;60875.16;6335404;22;45367;-88
2022/04/14 12:57:20;;;;;;;;;6.00;3.25;;;;;-146.03;100.00;60875.16;6307523;22;45355;-92
2022/04/14 13:00:07;;;;;;;;;3.25;3.25;;;;;-146.03;100.00;60875.16;6333944;22;45244;-91
2022/04/14 13:02:33;;;;;;;;;3.00;3.00;;;;;-146.03;100.00;60875.16;6304764;22;46990;-88
2022/04/14 13:05:21;;;;;;;;;2.00;2.00;;;;;-146.03;100.00;60875.16;6334719;22;45390;-89
2022/04/14 13:07:53;;;;;;;;;2.75;2.75;;;;;-146.03;100.00;60875.16;6307363;22;45466;-90
2022/04/14 13:10:41;;;;;;;;;1.75;1.75;;;;;-146.03;100.00;60875.16;6335918;22;45276;-89
2022/04/14 13:13:27;;;;;;;;;4.00;3.50;;;;;-146.03;100.00;60875.16;6332544;22;47836;-90
2022/04/14 13:15:53;;;;;;;;;3.00;2.00;;;;;-146.03;100.00;60875.16;6332540;22;45402;-90
2022/04/14 13:18:23;;;;;;;;;4.00;4.00;;;;;-146.03;100.00;60875.16;6332040;22;45537;-90
2022/04/14 13:20:48;;;;;;;;;3.00;3.00;;;;;-146.03;100.00;60875.16;6334619;22;45284;-88
2022/04/14 13:23:18;;;;;;;;;2.50;2.50;;;;;-146.03;100.00;60875.16;6333821;22;45301;-85
2022/04/14 13:25:46;;;;;;;;;3.75;3.00;;;;;-146.03;100.00;60875.16;6306404;22;45928;-87
2022/04/14 13:28:12;;;;;;;;;3.25;3.25;;;;;-146.03;100.00;60875.16;6334519;22;45394;-87
2022/04/14 13:30:38;;;;;;;;;4.50;4.50;;;;;-146.03;100.00;60875.16;6334706;22;45399;-88
2022/04/14 13:33:04;;;;;;;;;2.25;2.25;;;;;-146.03;100.00;60875.16;6306623;22;48391;-87
2022/04/14 13:35:30;;;;;;;;;2.25;2.25;;;;;-146.03;100.00;60875.16;6334301;22;45335;-87
2022/04/14 13:37:55;;;;;;;;;3.00;3.00;;;;;-146.03;100.00;60875.16;6335201;22;45496;-86
2022/04/14 13:40:21;;;;;;;;;3.00;3.00;;;;;-146.03;100.00;60875.16;6335228;22;45454;-87
2022/04/14 13:42:46;;;;;;;;;2.25;2.25;;;;;-146.03;100.00;60875.16;6306587;22;47084;-88
2022/04/14 13:45:12;;;;;;;;;4.00;4.00;;;;;-146.03;100.00;60875.16;6306067;22;45927;-88
2022/04/14 13:47:42;;;;;;;;;3.00;3.00;;;;;-146.03;100.00;60875.16;6305692;22;45410;-88
2022/04/14 13:50:09;;;;;;;;;1.75;1.75;;;;;-146.03;100.00;60875.16;6334131;22;45332;-88
2022/04/14 13:52:35;;;;;;;;;2.50;2.50;;;;;-146.03;100.00;60875.16;6305381;22;48010;-88
2022/04/14 13:55:01;;;;;;;;;3.00;3.00;;;;;-146.03;100.00;60875.16;6334042;22;45400;-89
2022/04/14 13:57:26;;;;;;;;;4.00;4.00;;;;;-146.03;100.00;60875.16;6333652;22;45414;-88
2022/04/14 13:59:52;;;;;;;;;3.50;3.50;;;;;-146.03;100.00;60875.16;6333273;22;45351;-89
2022/04/14 14:02:17;;;;;;;;;2.75;2.75;;;;;-146.03;100.00;60875.16;6333993;22;45378;-87
2022/04/14 14:04:43;;;;;;;;;3.25;3.00;;;;;-146.03;100.00;60875.16;6333522;22;45351;-88
2022/04/14 14:07:16;;;;;;;;;3.00;3.00;;;;;-146.03;100.00;60875.16;6333515;22;45332;-90
2022/04/14 14:09:42;;;;;;;;;3.00;3.00;;;;;-146.03;100.00;60875.16;6334091;22;45392;-90
2022/04/14 14:12:08;;;;;;;;;2.00;2.00;;;;;-146.03;100.00;60875.16;6335383;22;45350;-87
2022/04/14 14:14:37;;;;;;;;;2.50;2.50;;;;;-146.03;100.00;60875.16;6332687;22;45445;-87
2022/04/14 14:17:02;;;;;;;;;4.00;2.00;;;;;-146.03;100.00;60875.16;6305368;22;45436;-88
2022/04/14 14:19:28;;;;;;;;;2.00;2.00;;;;;-146.03;100.00;60875.16;6334954;22;45379;-88
2022/04/14 14:21:54;;;;;;;;;5.00;2.00;;;;;-146.03;100.00;60875.16;6335007;22;45208;-86
2022/04/14 14:24:19;;;;;;;;;3.00;3.00;;;;;-146.03;100.00;60875.16;6334092;22;45253;-86
2022/04/14 14:26:45;;;;;;;;;5.50;3.25;;;;;-146.03;100.00;60875.16;6334793;22;45220;-87
2022/04/14 14:29:11;;;;;;;;;3.75;2.00;;;;;-146.03;100.00;60875.16;6306509;22;45411;-87
2022/04/14 14:31:39;;;;;;;;;2.00;2.00;;;;;-146.03;100.00;60875.16;6334531;22;45697;-88
2022/04/14 14:34:04;;;;;;;;;2.00;2.00;;;;;-146.03;100.00;60875.16;6334928;22;45394;-87
2022/04/14 14:36:30;;;;;;;;;3.00;3.00;;;;;-146.03;100.00;60875.16;6334802;22;45360;-87
2022/04/14 14:38:55;;;;;;;;;3.00;3.00;;;;;-146.03;100.00;60875.16;6335176;22;45300;-88
2022/04/14 14:41:21;;;;;;;;;1.50;1.50;;;;;-146.03;100.00;60875.16;6334734;22;45568;-87
2022/04/14 14:43:46;;;;;;;;;2.25;2.25;;;;;-146.03;100.00;60875.16;6334545;22;45341;-88
2022/04/14 14:46:11;;;;;;;;;2.00;2.00;;;;;-146.03;100.00;60875.16;6335590;22;45554;-87
2022/04/14 14:48:39;;;;;;;;;3.00;2.00;;;;;-146.03;100.00;60875.16;6334507;22;45482;-87
2022/04/14 14:51:04;;;;;;;;;2.00;2.00;;;;;-146.03;100.00;60875.16;6334378;22;46057;-87
2022/04/14 14:53:30;;;;;;;;;1.00;1.00;;;;;-146.03;100.00;60875.16;6334595;22;45262;-88
2022/04/14 14:55:56;;;;;;;;;1.00;1.00;;;;;-146.03;100.00;60875.16;6306884;22;45360;-87
2022/04/14 15:01:07;;;;;;;;;2.50;2.50;;;;;-146.03;100.00;60875.16;6336617;22;45470;-91
2022/04/14 15:03:33;;;;;;;;;1.50;1.00;;;;;-146.03;100.00;60875.16;6334620;22;45344;-87
2022/04/14 15:05:58;;;;;;;;;2.00;2.00;;;;;-146.03;100.00;60875.16;6333527;22;45396;-88
2022/04/14 15:08:24;;;;;;;;;3.50;3.50;;;;;-146.03;100.00;60875.16;6335735;22;45390;-87
2022/04/14 15:10:49;;;;;;;;;1.50;1.50;;;;;-146.03;100.00;60875.16;6335898;22;45366;-89
2022/04/14 15:13:17;;;;;;;;;2.00;2.00;;;;;-146.03;100.00;60875.16;6334462;22;45316;-89
2022/04/14 15:15:48;;;;;;;;;1.00;1.00;;;;;-146.03;100.00;60875.16;6336602;22;45271;-87
2022/04/14 15:18:14;;;;;;;;;2.00;2.00;;;;;-146.03;100.00;60875.16;6335998;22;45451;-87
2022/04/14 15:20:39;;;;;;;;;2.00;2.00;;;;;-146.03;100.00;60875.16;6307677;22;46744;-88
2022/04/14 15:23:05;;;;;;;;;2.00;2.00;;;;;-146.03;100.00;60875.16;6336057;22;45316;-88
2022/04/14 15:25:34;;;;;;;;;3.25;1.50;;;;;-146.03;100.00;60875.16;6336293;22;45839;-87
2022/04/14 15:28:03;;;;;;;;;2.00;2.00;;;;;-146.03;100.00;60875.16;6336519;22;45261;-86
2022/04/14 15:30:28;;;;;;;;;1.25;1.25;;;;;-146.03;100.00;60875.16;6307706;22;47784;-88
2022/04/14 15:32:56;;;;;;;;;2.00;2.00;;;;;-146.03;100.00;60875.16;6336194;22;45375;-87
2022/04/14 15:35:25;;;;;;;;;2.00;2.00;;;;;-146.03;100.00;60875.16;6336840;22;45277;-87
2022/04/14 15:37:51;;;;;;;;;1.25;1.25;;;;;-146.03;100.00;60875.16;6335784;22;45410;-88
2022/04/14 15:40:17;;;;;;;;;1.25;1.25;;;;;-146.03;100.00;60875.16;6307530;22;47199;-88
2022/04/14 15:42:43;;;;;;;;;1.25;1.25;;;;;-146.03;100.00;60875.16;6334625;22;45527;-87
2022/04/14 15:45:09;;;;;;;;;2.00;2.00;;;;;-146.03;100.00;60875.16;6307903;22;45258;-88
2022/04/14 15:47:34;;;;;;;;;1.25;1.25;;;;;-146.03;100.00;60875.16;6336480;22;45344;-88
2022/04/14 15:50:00;;;;;;;;;1.00;1.00;;;;;-146.03;100.00;60875.16;6307962;22;48004;-87
2022/04/14 15:52:25;;;;;;;;;0.50;0.50;;;;;-146.03;100.00;60875.16;6308306;22;45806;-88
2022/04/14 15:54:53;;;;;;;;;2.00;2.00;;;;;-146.03;100.00;60875.16;6336067;22;45315;-88
2022/04/14 15:57:18;;;;;;;;;1.25;1.25;;;;;-146.03;100.00;60875.16;6336139;22;45213;-87
2022/04/14 15:59:45;;;;;;;;;1.00;1.00;;;;;-146.03;100.00;60875.16;6336282;22;45300;-88
2022/04/14 16:02:13;;;;;;;;;1.25;1.00;;;;;-146.03;100.00;60875.16;6336277;22;45363;-87
2022/04/14 16:04:38;;;;;;;;;2.75;1.75;;;;;-146.03;100.00;60875.16;6307638;22;45413;-88
2022/04/14 16:07:04;;;;;;;;;1.00;1.00;;;;;-146.03;100.00;60875.16;6306778;22;45308;-89
2022/04/14 16:12:02;;;;;;;;;1.50;1.50;;;;;-146.03;100.00;60875.16;6306472;22;46920;-87
2022/04/14 16:12:15;;;;;;;;;0.50;0.50;;;;;-146.03;100.00;60875.16;6335505;22;45281;-88
2022/04/14 16:14:41;;;;;;;;;2.00;1.00;;;;;-146.03;100.00;60875.16;6336579;22;45521;-88
2022/04/14 16:17:06;;;;;;;;;1.00;1.00;;;;;-146.03;100.00;60875.16;6335929;22;45174;-88
2022/04/14 16:19:32;;;;;;;;;1.25;1.00;;;;;-146.03;100.00;60875.16;6336122;22;45391;-87
2022/04/14 16:21:58;;;;;;;;;2.00;2.00;;;;;-146.03;100.00;60875.16;6336155;22;45232;-89
2022/04/14 16:24:24;;;;;;;;;3.00;1.25;;;;;-146.03;100.00;60875.16;6307029;22;45434;-88
2022/04/14 16:26:49;;;;;;;;;1.00;1.00;;;;;-146.03;100.00;60875.16;6336364;22;45320;-88
2022/04/14 16:29:15;;;;;;;;;1.25;1.25;;;;;-146.03;100.00;60875.16;6307913;22;47369;-87
2022/04/14 16:31:41;;;;;;;;;1.00;1.00;;;;;-146.03;100.00;60875.16;6307752;22;45722;-88
2022/04/14 16:34:06;;;;;;;;;1.00;1.00;;;;;-146.03;100.00;60875.16;6336343;22;45311;-89
2022/04/14 16:36:32;;;;;;;;;1.00;1.00;;;;;-146.03;100.00;60875.16;6336109;22;45276;-88
2022/04/14 16:38:57;;;;;;;;;2.00;1.00;;;;;-146.03;100.00;60875.16;6334952;22;46001;-90
2022/04/14 16:41:25;;;;;;;;;1.00;0.75;;;;;-146.03;100.00;60875.16;6334877;22;45428;-88
2022/04/14 16:43:51;;;;;;;;;0.75;0.75;;;;;-146.03;100.00;60875.16;6335171;22;45398;-89
2022/04/14 16:46:16;;;;;;;;;1.00;1.00;;;;;-146.03;100.00;60875.16;6333058;22;45326;-90
2022/04/14 16:48:44;;;;;;;;;1.00;1.00;;;;;-146.03;100.00;60875.16;6334305;22;45641;-89
2022/04/14 16:51:10;;;;;;;;;2.00;0.75;;;;;-146.03;100.00;60875.16;6334043;22;45299;-88
2022/04/14 16:53:37;;;;;;;;;0.00;0.00;;;;;-146.03;100.00;60875.16;6334277;22;45439;-87
2022/04/14 16:56:03;;;;;;;;;0.50;0.50;;;;;-146.03;100.00;60875.16;6334134;22;45466;-88
2022/04/14 16:58:28;;;;;;;;;0.00;0.00;;;;;-146.03;100.00;60875.16;6333916;22;45400;-89
2022/04/14 17:00:53;;;;;;;;;0.00;0.00;;;;;-146.03;100.00;60875.16;6334004;22;45461;-88
2022/04/14 17:03:22;;;;;;;;;1.00;1.00;;;;;-146.03;100.00;60875.16;6334536;22;45664;-88
2022/04/14 17:05:47;;;;;;;;;1.00;0.00;;;;;-146.03;100.00;60875.16;6334287;22;45244;-88
2022/04/14 17:08:13;;;;;;;;;1.00;0.00;;;;;-146.03;100.00;60875.16;6330134;22;47766;-88
2022/04/14 17:10:39;;;;;;;;;2.00;1.00;;;;;-146.03;100.00;60875.16;6305487;22;45314;-89
2022/04/14 17:13:05;;;;;;;;;0.00;0.00;;;;;-146.03;100.00;60875.16;6336013;22;45309;-87
2022/04/14 17:15:31;;;;;;;;;1.00;1.00;;;;;-146.03;100.00;60875.16;6334792;22;45248;-87
2022/04/14 17:17:56;;;;;;;;;1.00;1.00;;;;;-146.03;100.00;60875.16;6305705;22;47854;-88
2022/04/14 17:20:22;;;;;;;;;0.50;0.50;;;;;-146.03;100.00;60875.16;6334323;22;45367;-88
2022/04/14 17:25:31;;;;;;;;;3.00;1.00;;;;;-146.03;100.00;60875.16;6335590;22;45392;-87
2022/04/14 17:27:57;;;;;;;;;1.25;1.25;;;;;-146.03;100.00;60875.16;6335312;22;45343;-88
2022/04/14 17:30:22;;;;;;;;;1.00;1.00;;;;;-146.03;100.00;60875.16;6335305;22;45443;-88
2022/04/14 17:32:48;;;;;;;;;1.75;1.75;;;;;-146.03;100.00;60875.16;6335819;22;45374;-88
2022/04/14 17:35:13;;;;;;;;;3.00;1.00;;;;;-146.03;100.00;60875.16;6336248;22;45318;-93
2022/04/14 17:37:49;;;;;;;;;;;;;;;;;;;;;
2022/04/14 17:40:15;;;;;;;;;2.00;1.00;;;;;-146.03;100.00;60875.16;6334256;22;73406;-90
2022/04/14 17:42:41;;;;;;;;;1.00;1.00;;;;;-146.03;100.00;60875.16;6310096;22;45312;-91
2022/04/14 17:45:07;;;;;;;;;0.25;0.25;;;;;-146.03;100.00;60875.16;6335719;22;45619;-92
2022/04/14 17:47:33;;;;;;;;;1.00;1.00;;;;;-146.03;100.00;60875.16;6335541;22;47073;-91
2022/04/14 17:49:58;;;;;;;;;1.25;1.00;;;;;-146.03;100.00;60875.16;6336269;22;45262;-91
2022/04/14 17:52:25;;;;;;;;;2.00;2.00;;;;;-146.03;100.00;60875.16;6307199;22;45285;-92
2022/04/14 17:54:50;;;;;;;;;2.75;2.75;;;;;-146.03;100.00;60875.16;6336001;22;45340;-90
2022/04/14 17:57:16;;;;;;;;;3.00;3.00;;;;;-146.03;100.00;60875.16;6335381;22;46382;-91
2022/04/14 17:59:41;;;;;;;;;2.25;2.25;;;;;-146.03;100.00;60875.16;6335871;22;45333;-91
2022/04/14 18:02:11;;;;;;;;;6.25;3.75;;;;;-146.03;100.00;60875.16;6307448;22;45436;-91
2022/04/14 18:04:36;;;;;;;;;2.00;1.25;;;;;-146.03;100.00;60875.16;6335647;22;45408;-90
2022/04/14 18:07:04;;;;;;;;;3.00;2.00;;;;;-146.03;100.00;60875.16;6334253;22;45472;-90
2022/04/14 18:09:30;;;;;;;;;3.00;2.00;;;;;-146.03;100.00;60875.16;6307424;22;45970;-91
2022/04/14 18:11:55;;;;;;;;;2.50;1.00;;;;;-146.03;100.00;60875.16;6338101;22;45271;-91
2022/04/14 18:14:43;;;;;;;;;;;;;;;;;;;;;
2022/04/14 18:17:11;;;;;;;;;2.75;2.00;;;;;-146.03;100.00;60875.16;6334740;22;75296;-92
2022/04/14 18:19:36;;;;;;;;;3.75;3.75;;;;;-146.03;100.00;60875.16;6308659;22;45182;-91
2022/04/14 18:22:03;;;;;;;;;2.00;2.00;;;;;-146.03;100.00;60875.16;6337053;22;45261;-92
2022/04/14 18:24:29;;;;;;;;;5.00;3.00;;;;;-146.03;100.00;60875.16;6338047;22;45528;-91
2022/04/14 18:26:54;;;;;;;;;3.25;3.25;;;;;-146.03;100.00;60875.16;6307446;22;47473;-90
2022/04/14 18:29:22;;;;;;;;;3.75;2.00;;;;;-146.03;100.00;60875.16;6338285;22;45284;-90
2022/04/14 18:31:48;;;;;;;;;2.75;2.75;;;;;-146.03;100.00;60875.16;6334070;22;45331;-86
2022/04/14 18:34:13;;;;;;;;;5.00;4.25;;;;;-146.03;100.00;60875.16;6335082;22;45403;-86
2022/04/14 18:36:41;;;;;;;;;3.75;3.00;;;;;-146.03;100.00;60875.16;6336137;22;45363;-85
2022/04/14 18:39:08;;;;;;;;;3.00;3.00;;;;;-146.03;100.00;60875.16;6335259;22;45344;-85
2022/04/14 18:41:35;;;;;;;;;3.75;3.75;;;;;-146.03;100.00;60875.16;6336257;22;45320;-84
2022/04/14 18:44:00;;;;;;;;;6.00;6.00;;;;;-146.03;100.00;60875.16;6299086;22;45997;-86
2022/04/14 18:46:26;;;;;;;;;4.00;4.00;;;;;-146.03;100.00;60875.16;6334780;22;45333;-85
2022/04/14 18:48:51;;;;;;;;;9.00;7.00;;;;;-146.03;100.00;60875.16;6334383;22;45495;-85
2022/04/14 18:51:19;;;;;;;;;5.50;5.50;;;;;-146.03;100.00;60875.16;6334434;22;45325;-87
2022/04/14 18:53:44;;;;;;;;;7.00;6.75;;;;;-146.03;100.00;60875.16;6335700;22;45265;-86
2022/04/14 18:56:10;;;;;;;;;8.00;6.50;;;;;-146.03;100.00;60875.16;6335723;22;45354;-87
2022/04/14 18:58:35;;;;;;;;;7.75;6.25;;;;;-146.03;100.00;60875.16;6333740;22;45362;-85
2022/04/14 19:01:00;;;;;;;;;10.00;7.25;;;;;-146.03;100.00;60875.16;6335651;22;45305;-85
2022/04/14 19:03:26;;;;;;;;;6.00;6.00;;;;;-146.03;100.00;60875.16;6336254;22;45418;-85
2022/04/14 19:05:51;;;;;;;;;7.00;6.00;;;;;-146.03;100.00;60875.16;6335518;22;45903;-88
2022/04/14 19:08:16;;;;;;;;;5.75;5.75;;;;;-146.03;100.00;60875.16;6335224;22;45106;-86
2022/04/14 19:10:42;;;;;;;;;7.25;7.25;;;;;-146.03;100.00;60875.16;6337068;22;45706;-85
2022/04/14 19:13:08;;;;;;;;;7.75;7.75;;;;;-146.03;100.00;60875.16;6335774;22;45292;-86
2022/04/14 19:15:36;;;;;;;;;6.00;6.00;;;;;-146.03;100.00;60875.16;6336079;22;45912;-87
2022/04/14 19:18:02;;;;;;;;;5.50;4.75;;;;;-146.03;100.00;60875.16;6336084;22;45313;-87
2022/04/14 19:20:28;;;;;;;;;7.50;6.25;;;;;-146.03;100.00;60875.16;6307033;22;45586;-86
2022/04/14 19:22:53;;;;;;;;;5.50;5.50;;;;;-146.03;100.00;60875.16;6335828;22;45334;-87
2022/04/14 19:25:19;;;;;;;;;6.75;6.75;;;;;-146.03;100.00;60875.16;6335571;22;46362;-86
2022/04/14 19:27:45;;;;;;;;;6.25;6.25;;;;;-146.03;100.00;60875.16;6336035;22;45331;-85
2022/04/14 19:30:12;;;;;;;;;7.50;7.50;;;;;-146.03;100.00;60875.16;6336258;22;45379;-86
2022/04/14 19:32:37;;;;;;;;;6.00;6.00;;;;;-146.03;100.00;60875.16;6332928;22;45611;-86
2022/04/14 19:35:09;;;;;;;;;6.00;6.00;;;;;-146.03;100.00;60875.16;6334231;22;46057;-87
2022/04/14 19:37:36;;;;;;;;;8.75;5.50;;;;;-146.03;100.00;60875.16;6335176;22;45490;-86
2022/04/14 19:40:01;;;;;;;;;6.25;6.25;;;;;-146.03;100.00;60875.16;6335283;22;45319;-86
2022/04/14 19:42:27;;;;;;;;;7.75;6.75;;;;;-146.03;100.00;60875.16;6335269;22;45345;-85
2022/04/14 19:44:52;;;;;;;;;7.00;7.00;;;;;-146.03;100.00;60875.16;6307272;22;47432;-85
2022/04/14 19:47:17;;;;;;;;;8.75;7.00;;;;;-146.03;100.00;60875.16;6334654;22;45284;-86
2022/04/14 19:49:44;;;;;;;;;5.75;5.75;;;;;-146.03;100.00;60875.16;6335626;22;45297;-87
2022/04/14 19:52:09;;;;;;;;;7.50;7.50;;;;;-146.03;100.00;60875.16;6335983;22;45333;-86
2022/04/14 19:54:35;;;;;;;;;7.00;7.00;;;;;-146.03;100.00;60875.16;6334715;22;45313;-87
2022/04/14 19:57:00;;;;;;;;;8.00;8.00;;;;;-146.03;100.00;60875.16;6335487;22;45317;-87
2022/04/14 19:59:27;;;;;;;;;8.00;8.00;;;;;-146.03;100.00;60875.16;6307217;22;45276;-88
2022/04/14 20:01:53;;;;;;;;;8.25;8.25;;;;;-146.03;100.00;60875.16;6334655;22;45414;-86
2022/04/14 20:04:19;;;;;;;;;6.75;6.75;;;;;-146.03;100.00;60875.16;6335562;22;45790;-86
2022/04/14 20:06:45;;;;;;;;;5.50;5.50;;;;;-146.03;100.00;60875.16;6334668;22;45335;-86
2022/04/14 20:09:11;;;;;;;;;10.25;7.00;;;;;-146.03;100.00;60875.16;6335294;22;45254;-86
2022/04/14 20:11:37;;;;;;;;;9.00;7.00;;;;;-146.03;100.00;60875.16;6334725;22;45602;-87
2022/04/14 20:14:02;;;;;;;;;8.75;6.50;;;;;-146.03;100.00;60875.16;6334995;22;45247;-85
2022/04/14 20:16:27;;;;;;;;;6.00;6.00;;;;;-146.03;100.00;60875.16;6335073;22;45294;-85
2022/04/14 20:18:53;;;;;;;;;7.00;5.25;;;;;-146.03;100.00;60875.16;6335797;22;45264;-85
2022/04/14 20:21:18;;;;;;;;;8.50;6.00;;;;;-146.03;100.00;60875.16;6306395;22;45282;-84
2022/04/14 20:23:45;;;;;;;;;9.00;6.50;;;;;-146.03;100.00;60875.16;6335079;22;46201;-85
2022/04/14 20:26:10;;;;;;;;;6.00;6.00;;;;;-146.03;100.00;60875.16;6335024;22;45322;-85
2022/04/14 20:28:36;;;;;;;;;7.25;6.00;;;;;-146.03;100.00;60875.16;6335180;22;45269;-86
2022/04/14 20:31:01;;;;;;;;;9.25;6.75;;;;;-146.03;100.00;60875.16;6333488;22;45520;-86
2022/04/14 20:33:27;;;;;;;;;7.00;7.00;;;;;-146.03;100.00;60875.16;6330278;22;46329;-85
2022/04/14 20:35:53;;;;;;;;;6.00;6.00;;;;;-146.03;100.00;60875.16;6333932;22;45304;-86
2022/04/14 20:38:18;;;;;;;;;9.00;8.25;;;;;-146.03;100.00;60875.16;6333906;22;45958;-85
2022/04/14 20:40:44;;;;;;;;;9.25;6.75;;;;;-146.03;100.00;60875.16;6334728;22;45273;-84
2022/04/14 20:43:10;;;;;;;;;8.50;8.50;;;;;-146.03;100.00;60875.16;6333700;22;46127;-85
2022/04/14 20:45:35;;;;;;;;;11.75;9.75;;;;;-146.03;100.00;60875.16;6333753;22;45498;-84
2022/04/14 20:48:01;;;;;;;;;9.75;7.75;;;;;-146.03;100.00;60875.16;6306775;22;45339;-85
2022/04/14 20:50:26;;;;;;;;;7.25;7.25;;;;;-146.03;100.00;60875.16;6333352;22;45434;-85
2022/04/14 20:52:52;;;;;;;;;8.75;8.00;;;;;-146.03;100.00;60875.16;6334861;22;45286;-84
2022/04/14 20:55:17;;;;;;;;;9.25;9.25;;;;;-146.03;100.00;60875.16;6301523;22;45561;-85
2022/04/14 20:57:42;;;;;;;;;9.25;8.25;;;;;-146.03;100.00;60875.16;6333863;22;45655;-84
2022/04/14 21:00:08;;;;;;;;;7.00;7.00;;;;;-146.03;100.00;60875.16;6334399;22;45395;-84
2022/04/14 21:02:34;;;;;;;;;10.75;8.25;;;;;-146.03;100.00;60875.16;6334585;22;45848;-85
2022/04/14 21:04:59;;;;;;;;;8.50;8.00;;;;;-146.03;100.00;60875.16;6335369;22;45217;-84
2022/04/14 21:07:24;;;;;;;;;9.00;9.00;;;;;-146.03;100.00;60875.16;6334448;22;45546;-84
2022/04/14 21:09:50;;;;;;;;;10.00;10.00;;;;;-146.03;100.00;60875.16;6333122;22;45226;-84
2022/04/14 21:12:15;;;;;;;;;5.75;5.75;;;;;-146.03;100.00;60875.16;6306216;22;47400;-84
2022/04/14 21:14:40;;;;;;;;;6.00;5.00;;;;;-146.03;100.00;60875.16;6306160;22;45331;-84
2022/04/14 21:17:06;;;;;;;;;8.75;8.25;;;;;-146.03;100.00;60875.16;6306465;22;45297;-84
2022/04/14 21:19:32;;;;;;;;;8.75;8.75;;;;;-146.03;100.00;60875.16;6334218;22;45404;-84
2022/04/14 21:21:58;;;;;;;;;10.75;8.50;;;;;-146.03;100.00;60875.16;6331733;22;47006;-84
2022/04/14 21:24:24;;;;;;;;;9.00;7.25;;;;;-146.03;100.00;60875.16;6334442;22;45340;-84